Latest Weather Observations for Marble Bar

IDW60801

Issued at 11:23 am WST Monday 18 November 2019 (issued every 10 minutes, with the page automatically refreshed every 10 minutes)

About weather observations | Map of weather stations | Latest weather observations for WA | Other Formats
Station Details ID: 004106 Name: MARBLE BAR Lat: -21.18 Lon: 119.75 Height: 182.3 m
Data from the previous 72 hours. | See also: Recent months at Marble Bar
Date/Time
WST
Temp
°C
App
Temp
°C
Dew
Point
°C
Rel
Hum
%
Delta-T
°C
Wind Press
QNH
hPa
Press
MSL
hPa
Rain since
9am
mm
Dir  Spd
km/h
Gust
km/h
Spd
kts
Gust
kts
18/11:00am 42.1 36.4 -11.8 3 23.5 NNE 13 22 7 12 1011.5 1010.1 0.0
18/10:30am 42.0 36.7 -11.9 3 23.5 ENE 11 20 6 11 1012.1 1010.6 0.0
18/10:00am 40.5 35.2 -12.9 3 22.6 NE 11 20 6 11 1012.5 1011.0 0.0
18/09:30am 39.9 34.2 -13.2 3 22.3 NE 13 19 7 10 1012.8 1011.3 0.0
18/09:00am 39.0 33.8 -10.3 4 21.5 NE 11 19 6 10 1013.0 1011.5 0.0
18/08:30am 38.7 34.5 -10.5 4 21.3 ENE 6 13 3 7 1013.1 1011.6 0.0
18/08:00am 36.5 33.6 -1.4 9 18.6 WSW 4 7 2 4 1013.0 1011.5 0.0
18/07:30am 34.5 32.1 2.1 13 16.6 WSW 4 7 2 4 1013.0 1011.5 0.0
18/07:00am 31.9 29.6 3.0 16 14.8 SW 4 7 2 4 1012.9 1011.4 0.0
18/06:30am 29.9 28.3 4.5 20 13.2 SSW 2 7 1 4 1012.6 1011.1 0.0
18/06:00am 26.9 24.7 3.4 22 11.8 SSE 4 6 2 3 1012.4 1010.9 0.0
18/05:30am 24.5 22.7 3.2 25 10.5 S 2 4 1 2 1012.3 1010.8 0.0
18/05:00am 25.5 23.6 5.1 27 10.4 SSW 4 6 2 3 1012.1 1010.6 0.0
18/04:30am 25.0 23.2 5.2 28 10.1 SSW 4 4 2 2 1011.6 1010.2 0.0
18/04:00am 26.6 24.7 5.0 25 11.1 SW 4 7 2 4 1011.6 1010.2 0.0
18/03:30am 27.8 26.8 5.4 24 11.7 CALM 0 0 0 0 1011.1 1009.7 0.0
18/03:00am 27.8 25.9 4.8 23 11.9 SSW 4 6 2 3 1011.0 1009.6 0.0
18/02:30am 28.0 26.4 4.3 22 12.1 SSE 2 6 1 3 1011.0 1009.6 0.0
18/02:00am 29.7 27.3 4.4 20 13.1 SSW 6 9 3 5 1011.2 1009.8 0.0
18/01:30am 30.1 28.5 4.7 20 13.3 SSW 2 4 1 2 1011.4 1010.0 0.0
18/01:00am 28.0 25.9 3.7 21 12.3 SSW 4 6 2 3 1011.6 1010.2 0.0
18/12:30am 30.5 28.5 4.3 19 13.6 SSW 4 9 2 5 1012.0 1010.5 0.0
18/12:00am 29.6 27.1 3.6 19 13.3 SSW 6 6 3 3 1012.3 1010.8 0.0
 
Date/Time
WST
Temp
°C
App
Temp
°C
Dew
Point
°C
Rel
Hum
%
Delta-T
°C
Wind Press
QNH
hPa
Press
MSL
hPa
Rain since
9am
mm
Dir  Spd
km/h
Gust
km/h
Spd
kts
Gust
kts
17/11:30pm 30.1 27.2 2.4 17 13.9 SW 7 11 4 6 1012.5 1011.0 0.0
17/11:00pm 29.5 26.9 1.1 16 13.9 S 4 7 2 4 1012.8 1011.3 0.0
17/10:30pm 31.7 29.1 1.0 14 15.2 SSW 4 6 2 3 1012.9 1011.4 0.0
17/10:00pm 31.8 28.8 -4.9 9 16.5 SSE 2 6 1 3 1012.9 1011.4 0.0
17/09:30pm 31.7 27.5 -10.2 6 17.2 SW 6 9 3 5 1013.0 1011.5 0.0
17/09:00pm 34.7 30.3 -10.4 5 18.9 ENE 7 15 4 8 1012.5 1011.0 0.0
17/08:30pm 34.4 30.2 -10.6 5 18.8 ESE 6 7 3 4 1012.1 1010.6 0.0
17/08:00pm 34.9 30.7 -10.3 5 19.0 ESE 6 7 3 4 1012.0 1010.5 0.0
17/07:30pm 35.3 31.7 -12.8 4 19.5 ESE 2 6 1 3 1011.5 1010.1 0.0
17/07:00pm 37.5 33.2 -11.3 4 20.7 E 6 7 3 4 1011.1 1009.7 0.0
17/06:30pm 39.1 34.1 -13.8 3 21.9 ESE 9 13 5 7 1010.7 1009.3 0.0
17/06:00pm 41.2 35.1 -12.4 3 23.0 ESE 15 28 8 15 1010.5 1009.1 0.0
17/05:30pm 42.2 37.6 -16.7 2 24.0 ENE 6 7 3 4 1010.2 1008.8 0.0
17/05:00pm 43.0 37.1 -16.2 2 24.5 ESE 13 24 7 13 1010.0 1008.6 0.0
17/04:30pm 43.5 38.0 -15.9 2 24.7 ESE 11 28 6 15 1010.0 1008.6 0.0
17/04:00pm 43.5 36.9 -15.9 2 24.8 E 17 32 9 17 1010.0 1008.6 0.0
17/03:30pm 43.8 39.6 -15.7 2 24.9 E 4 13 2 7 1010.1 1008.7 0.0
17/03:00pm 44.4 36.8 -15.3 2 25.3 E 22 43 12 23 1010.3 1008.9 0.0
17/02:57pm 44.2 37.0 -15.4 2 25.1 E 20 43 11 23 1010.3 1008.9 0.0
17/02:30pm 43.1 38.0 -16.1 2 24.5 ENE 9 19 5 10 1010.7 1009.3 0.0
17/02:00pm 44.4 36.5 -15.3 2 25.3 E 24 37 13 20 1011.1 1009.7 0.0
17/01:30pm 44.6 37.6 -15.2 2 25.4 ENE 19 28 10 15 1011.4 1010.0 0.0
17/01:00pm 43.1 35.9 -16.1 2 24.5 ENE 20 41 11 22 1011.7 1010.3 0.0
17/12:30pm 43.5 35.9 -15.9 2 24.7 ENE 22 37 12 20 1012.1 1010.6 0.0
17/12:00pm 43.4 34.7 -15.9 2 24.7 E 28 43 15 23 1012.6 1011.1 0.0
17/11:39am 43.1 34.4 -16.1 2 24.5 ENE 28 50 15 27 1012.9 1011.4 0.0
17/11:30am 43.7 34.0 -15.7 2 24.8 ENE 33 46 18 25 1013.0 1011.5 0.0
17/11:03am 42.9 33.4 -16.2 2 24.4 ENE 32 54 17 29 1013.2 1011.7 0.0
17/11:00am 43.1 33.6 -16.1 2 24.5 ENE 32 46 17 25 1013.2 1011.7 0.0
17/10:31am 43.1 33.0 -16.1 2 24.5 E 35 56 19 30 1013.4 1011.9 0.0
17/10:30am 42.8 32.7 -16.3 2 24.3 E 35 52 19 28 1013.4 1011.9 0.0
17/10:00am 42.3 31.8 -16.6 2 24.0 ENE 37 56 20 30 1013.6 1012.2 0.0
17/09:35am 42.2 31.0 -16.7 2 24.0 ENE 41 61 22 33 1013.7 1012.3 0.0
17/09:30am 41.8 30.2 -16.9 2 23.7 E 43 61 23 33 1013.7 1012.3 0.0
17/09:20am 41.5 30.6 -17.1 2 23.6 ENE 39 59 21 32 1013.9 1012.5 0.0
17/09:00am 40.9 31.0 -12.6 3 22.9 ENE 35 50 19 27 1014.1 1012.7 0.0
17/08:30am 39.5 31.6 -4.7 6 21.0 ENE 28 39 15 21 1014.1 1012.7 0.0
17/08:00am 37.8 32.6 2.3 11 18.6 ENE 19 28 10 15 1014.0 1012.6 0.0
17/07:30am 33.4 31.6 8.1 21 14.2 NE 7 13 4 7 1013.8 1012.4 0.0
17/07:00am 31.5 30.0 8.5 24 12.9 NNW 6 9 3 5 1013.5 1012.1 0.0
17/06:30am 28.0 26.9 5.0 23 11.9 CALM 0 4 0 2 1013.1 1011.6 0.0
17/06:00am 26.2 24.7 2.8 22 11.5 CALM 0 2 0 1 1012.7 1011.2 0.0
17/05:30am 26.4 23.9 1.7 20 12.0 ENE 4 6 2 3 1012.2 1010.7 0.0
17/05:00am 27.7 24.2 -1.3 15 13.4 E 7 11 4 6 1011.7 1010.3 0.0
17/04:30am 29.8 24.7 -5.1 10 15.4 ESE 13 19 7 10 1011.3 1009.9 0.0
17/04:00am 26.6 22.8 -5.1 12 13.6 SSE 6 9 3 5 1011.2 1009.8 0.0
17/03:30am 26.9 22.3 -3.8 13 13.5 SSE 11 11 6 6 1011.1 1009.7 0.0
17/03:00am 27.4 23.6 1.8 19 12.5 SSE 11 13 6 7 1010.9 1009.5 0.0
17/02:30am 27.6 24.4 3.3 21 12.2 SE 9 11 5 6 1011.1 1009.7 0.0
17/02:00am 29.7 27.2 3.6 19 13.4 ESE 6 7 3 4 1011.2 1009.8 0.0
17/01:30am 31.4 28.4 5.8 20 13.7 SW 11 19 6 10 1011.2 1009.8 0.0
17/01:00am 31.9 29.1 6.9 21 13.7 SSW 11 17 6 9 1011.5 1010.1 0.0
17/12:30am 32.8 29.3 8.9 23 13.6 SW 17 24 9 13 1011.7 1010.3 0.0
17/12:00am 32.4 30.5 6.6 20 14.1 WSW 6 13 3 7 1011.6 1010.2 0.0
 
Date/Time
WST
Temp
°C
App
Temp
°C
Dew
Point
°C
Rel
Hum
%
Delta-T
°C
Wind Press
QNH
hPa
Press
MSL
hPa
Rain since
9am
mm
Dir  Spd
km/h
Gust
km/h
Spd
kts
Gust
kts
16/11:30pm 33.2 31.0 7.9 21 14.1 WSW 9 15 5 8 1011.8 1010.4 0.0
16/11:00pm 30.8 29.0 5.3 20 13.5 SSW 4 13 2 7 1012.4 1010.9 0.0
16/10:30pm 32.0 30.8 4.7 18 14.4 CALM 0 0 0 0 1012.7 1011.2 0.0
16/10:00pm 33.2 31.1 4.0 16 15.3 NNE 4 7 2 4 1012.8 1011.3 0.0
16/09:30pm 34.6 31.6 4.2 15 16.1 W 9 19 5 10 1012.6 1011.1 0.0
16/09:00pm 34.5 31.9 1.0 12 16.9 W 4 9 2 5 1012.3 1010.8 0.0
16/08:30pm 35.1 32.8 2.6 13 16.9 NNW 4 7 2 4 1012.0 1010.5 0.0
16/08:00pm 36.8 32.8 4.9 14 17.3 WNW 15 28 8 15 1011.5 1010.1 0.0
16/07:30pm 35.0 30.8 -10.2 5 19.1 SSE 6 7 3 4 1010.7 1009.3 0.0
16/07:00pm 36.3 31.6 -9.3 5 19.8 SE 9 11 5 6 1010.1 1008.7 0.0
16/06:30pm 38.7 34.3 -10.5 4 21.3 SSE 7 11 4 6 1009.7 1008.3 0.0
16/06:00pm 40.8 35.5 -12.7 3 22.8 SSE 11 17 6 9 1009.3 1007.9 0.0
16/05:30pm 42.1 36.1 -11.8 3 23.5 SSE 15 24 8 13 1009.1 1007.7 0.0
16/05:00pm 42.9 36.5 -11.3 3 24.0 SSE 17 26 9 14 1008.9 1007.5 0.0
16/04:30pm 44.4 37.8 -15.3 2 25.2 ESE 17 26 9 14 1008.7 1007.3 0.0
16/04:00pm 44.0 39.8 -10.6 3 24.6 S 6 17 3 9 1008.9 1007.5 0.0
16/03:30pm 44.2 38.6 -10.4 3 24.7 SE 13 22 7 12 1009.1 1007.7 0.0
16/03:00pm 43.6 37.3 -10.8 3 24.4 ESE 17 28 9 15 1009.5 1008.1 0.0
16/02:30pm 45.2 39.7 -9.8 3 25.3 ESE 13 33 7 18 1009.6 1008.2 0.0
16/02:00pm 44.6 37.9 -10.2 3 25.0 SE 19 32 10 17 1010.1 1008.7 0.0
16/01:30pm 45.1 38.8 -9.9 3 25.2 ESE 17 28 9 15 1010.4 1009.0 0.0
16/01:00pm 43.6 37.3 -10.8 3 24.4 ENE 17 28 9 15 1010.9 1009.5 0.0
16/12:30pm 44.8 38.1 -10.1 3 25.0 SE 19 28 10 15 1011.3 1009.9 0.0
16/12:00pm 44.1 37.4 -10.5 3 24.7 SE 19 35 10 19 1011.6 1010.2 0.0
16/11:30am 43.2 36.8 -11.1 3 24.1 ESE 17 28 9 15 1012.1 1010.6 0.0
16/11:00am 43.0 36.6 -11.2 3 24.0 E 17 28 9 15 1012.6 1011.1 0.0
16/10:30am 42.8 36.8 -11.4 3 23.9 ESE 15 26 8 14 1013.1 1011.6 0.0
16/10:00am 40.8 36.1 -9.1 4 22.4 E 9 17 5 9 1013.4 1011.9 0.0
16/09:30am 40.3 34.8 -9.4 4 22.2 ESE 13 22 7 12 1013.6 1012.2 0.0
16/09:00am 40.0 34.5 -9.6 4 22.0 ESE 13 20 7 11 1013.7 1012.3 0.0
16/08:30am 39.4 33.9 -10.0 4 21.7 E 13 20 7 11 1013.7 1012.3 0.0
16/08:00am 38.2 33.1 -5.6 6 20.4 ESE 13 22 7 12 1013.6 1012.2 0.0
16/07:30am 36.8 31.2 -6.6 6 19.7 ESE 15 22 8 12 1013.4 1011.9 0.0
16/07:00am 35.4 30.8 -3.8 8 18.4 ESE 11 17 6 9 1013.2 1011.7 0.0
16/06:30am 30.7 29.2 5.2 20 13.5 SSE 2 7 1 4 1012.9 1011.4 0.0
16/06:00am 27.2 26.3 6.0 26 11.1 CALM 0 0 0 0 1012.5 1011.0 0.0
16/05:30am 25.5 24.7 6.7 30 9.9 CALM 0 2 0 1 1012.0 1010.5 0.0
16/05:00am 27.0 25.9 6.9 28 10.7 SSW 2 6 1 3 1011.5 1010.1 0.0
16/04:30am 28.0 25.5 6.7 26 11.4 SSW 9 11 5 6 1011.3 1009.9 0.0
16/04:00am 28.0 26.2 7.3 27 11.2 WSW 6 7 3 4 1011.1 1009.7 0.0
16/03:30am 28.8 27.7 6.8 25 11.8 ESE 2 4 1 2 1011.0 1009.6 0.0
16/03:00am 28.5 26.3 7.7 27 11.3 SSE 9 17 5 9 1010.9 1009.5 0.0
16/02:30am 25.0 24.1 7.6 33 9.3 S 2 6 1 3 1011.1 1009.7 0.0
16/02:00am 25.8 25.3 7.9 32 9.6 CALM 0 0 0 0 1010.9 1009.5 0.0
16/01:30am 26.9 26.4 7.9 30 10.3 CALM 0 0 0 0 1011.0 1009.6 0.0
16/01:00am 27.3 26.7 7.2 28 10.8 CALM 0 0 0 0 1011.2 1009.8 0.0
16/12:30am 28.6 27.1 6.7 25 11.7 NNE 4 7 2 4 1011.4 1010.0 0.0
16/12:00am 31.2 29.2 7.0 22 13.2 E 7 7 4 4 1011.4 1010.0 0.0
 
Date/Time
WST
Temp
°C
App
Temp
°C
Dew
Point
°C
Rel
Hum
%
Delta-T
°C
Wind Press
QNH
hPa
Press
MSL
hPa
Rain since
9am
mm
Dir  Spd
km/h
Gust
km/h
Spd
kts
Gust
kts
15/11:30pm 30.4 29.6 6.3 22 12.9 CALM 0 4 0 2 1011.4 1010.0 0.0
15/11:00pm 31.5 29.4 6.5 21 13.6 S 7 9 4 5 1011.5 1010.1 0.0
15/10:30pm 30.6 29.5 7.1 23 12.8 SSW 2 6 1 3 1011.5 1010.1 0.0
15/10:00pm 31.1 29.1 6.2 21 13.4 SW 6 7 3 4 1011.6 1010.2 0.0
15/09:30pm 32.6 30.5 6.0 19 14.4 SSW 6 7 3 4 1011.6 1010.2 0.0
15/09:00pm 31.2 30.1 7.0 22 13.2 SSE 2 6 1 3 1011.5 1010.1 0.0
15/08:30pm 32.7 31.6 6.8 20 14.2 NNW 2 6 1 3 1011.3 1009.9 0.0
15/08:00pm 33.9 32.4 7.0 19 14.9 NNW 4 7 2 4 1011.2 1009.8 0.0
15/07:30pm 34.6 32.5 6.8 18 15.4 NNW 7 15 4 8 1010.8 1009.4 0.0
15/07:00pm 34.9 32.9 7.1 18 15.5 N 7 13 4 7 1010.4 1009.0 0.0
15/06:30pm 35.1 33.3 8.0 19 15.3 NNW 7 13 4 7 1010.0 1008.6 0.0
15/06:00pm 35.6 33.5 8.4 19 15.5 NNW 9 13 5 7 1009.6 1008.2 0.0
15/05:30pm 36.0 32.5 8.7 19 15.7 NNW 17 24 9 13 1009.4 1008.0 0.0
15/05:00pm 36.0 33.1 10.9 22 14.9 NNW 17 28 9 15 1009.1 1007.7 0.0
15/04:30pm 37.3 33.7 9.8 19 16.1 N 19 48 10 26 1008.7 1007.3 0.0
15/04:28pm 38.1 34.6 8.8 17 17.0 N 17 48 9 26 1008.6 1007.2 0.0
15/04:00pm 41.1 37.5 0.3 8 21.2 NNW 9 15 5 8 1008.2 1006.7 0.0
15/03:30pm 40.9 38.8 1.8 9 20.7 NW 2 4 1 2 1008.4 1006.9 0.0
15/03:00pm 39.8 36.5 2.5 10 19.9 NW 9 15 5 8 1008.7 1007.3 0.0
15/02:30pm 36.9 33.0 8.7 18 16.2 N 19 32 10 17 1009.1 1007.7 0.0
15/02:22pm 36.4 34.0 13.8 26 14.0 NE 19 28 10 15 1009.3 1007.9 0.0
15/02:00pm 41.6 37.8 -1.1 7 21.8 NE 9 20 5 11 1008.8 1007.4 0.0
15/01:30pm 41.8 37.8 0.8 8 21.5 NE 11 19 6 10 1009.1 1007.7 0.0
15/01:00pm 41.4 35.7 0.5 8 21.3 E 20 30 11 16 1009.5 1008.1 0.0
15/12:30pm 42.0 36.1 -0.9 7 22.0 ENE 20 35 11 19 1009.7 1008.3 0.0
15/12:00pm 42.2 36.5 -0.7 7 22.1 NE 19 35 10 19 1010.0 1008.6 0.0
15/11:30am 42.5 36.9 1.3 8 21.8 ENE 20 39 11 21 1010.4 1009.0 0.0

Other formats

Comma delimited format used in spreadsheet applications
http://www.bom.gov.au/fwo/IDW60801/IDW60801.95317.axf

JavaScript Object Notation format (JSON) in row-major order
http://www.bom.gov.au/fwo/IDW60801/IDW60801.95317.json

Data quality

Most of these data are generated automatically and are frequently updated. Quality checks on data are not normally performed. It is possible for incorrect values to appear. Refer to information at About Latest Weather Observations and please check the disclaimer before using these data.